sensor_id;sensor_type;location;lat;lon;timestamp;pressure;altitude;pressure_sealevel;temperature;humidity
65276;BME280;51875;49.994;14.052;2023-04-06T00:00:54;98757.66;;;-1.15;100.00
65276;BME280;51875;49.994;14.052;2023-04-06T00:02:10;98759.56;;;-1.08;100.00
65276;BME280;51875;49.994;14.052;2023-04-06T00:03:25;98760.78;;;-0.92;98.13
65276;BME280;51875;49.994;14.052;2023-04-06T00:04:40;98763.94;;;-1.04;99.78
65276;BME280;51875;49.994;14.052;2023-04-06T00:05:56;98760.06;;;-0.86;96.96
65276;BME280;51875;49.994;14.052;2023-04-06T00:07:12;98760.50;;;-0.67;93.73
65276;BME280;51875;49.994;14.052;2023-04-06T00:08:27;98764.50;;;-0.79;93.51
65276;BME280;51875;49.994;14.052;2023-04-06T00:09:43;98762.63;;;-0.86;93.87
65276;BME280;51875;49.994;14.052;2023-04-06T00:11:00;98754.13;;;-0.83;92.09
65276;BME280;51875;49.994;14.052;2023-04-06T00:12:15;98759.47;;;-0.74;91.19
65276;BME280;51875;49.994;14.052;2023-04-06T00:13:31;98759.38;;;-0.79;91.12
65276;BME280;51875;49.994;14.052;2023-04-06T00:14:47;98758.59;;;-0.76;91.14
65276;BME280;51875;49.994;14.052;2023-04-06T00:16:02;98763.69;;;-0.78;91.95
65276;BME280;51875;49.994;14.052;2023-04-06T00:17:20;98761.94;;;-0.79;91.67
65276;BME280;51875;49.994;14.052;2023-04-06T00:18:36;98759.75;;;-1.00;91.03
65276;BME280;51875;49.994;14.052;2023-04-06T00:19:51;98763.97;;;-1.02;91.84
65276;BME280;51875;49.994;14.052;2023-04-06T00:21:07;98765.59;;;-1.06;92.51
65276;BME280;51875;49.994;14.052;2023-04-06T00:22:23;98762.19;;;-1.05;90.99
65276;BME280;51875;49.994;14.052;2023-04-06T00:23:39;98765.66;;;-1.03;92.66
65276;BME280;51875;49.994;14.052;2023-04-06T00:24:54;98761.94;;;-1.16;95.30
65276;BME280;51875;49.994;14.052;2023-04-06T00:26:10;98761.66;;;-1.26;96.44
65276;BME280;51875;49.994;14.052;2023-04-06T00:27:26;98755.81;;;-1.21;95.54
65276;BME280;51875;49.994;14.052;2023-04-06T00:28:41;98760.16;;;-1.18;94.52
65276;BME280;51875;49.994;14.052;2023-04-06T00:29:57;98754.34;;;-1.11;92.70
65276;BME280;51875;49.994;14.052;2023-04-06T00:31:12;98762.91;;;-1.10;91.45
65276;BME280;51875;49.994;14.052;2023-04-06T00:32:28;98755.94;;;-1.16;94.13
65276;BME280;51875;49.994;14.052;2023-04-06T00:33:44;98754.91;;;-1.23;94.66
65276;BME280;51875;49.994;14.052;2023-04-06T00:34:59;98762.44;;;-1.31;93.67
65276;BME280;51875;49.994;14.052;2023-04-06T00:36:15;98759.75;;;-1.35;94.96
65276;BME280;51875;49.994;14.052;2023-04-06T00:37:31;98756.25;;;-1.39;95.16
65276;BME280;51875;49.994;14.052;2023-04-06T00:38:47;98747.72;;;-1.38;94.94
65276;BME280;51875;49.994;14.052;2023-04-06T00:40:02;98748.44;;;-1.42;94.37
65276;BME280;51875;49.994;14.052;2023-04-06T00:41:18;98752.03;;;-1.35;98.21
65276;BME280;51875;49.994;14.052;2023-04-06T00:42:34;98747.13;;;-1.26;98.58
65276;BME280;51875;49.994;14.052;2023-04-06T00:43:49;98750.88;;;-1.48;99.89
65276;BME280;51875;49.994;14.052;2023-04-06T00:45:05;98749.13;;;-1.49;100.00
65276;BME280;51875;49.994;14.052;2023-04-06T00:46:21;98750.41;;;-1.67;100.00
65276;BME280;51875;49.994;14.052;2023-04-06T00:47:37;98745.50;;;-1.58;100.00
65276;BME280;51875;49.994;14.052;2023-04-06T00:48:52;98747.88;;;-1.65;100.00
65276;BME280;51875;49.994;14.052;2023-04-06T00:50:08;98741.91;;;-1.64;100.00
65276;BME280;51875;49.994;14.052;2023-04-06T00:51:23;98747.66;;;-1.73;100.00
65276;BME280;51875;49.994;14.052;2023-04-06T00:52:40;98748.28;;;-1.82;100.00
65276;BME280;51875;49.994;14.052;2023-04-06T00:53:56;98744.78;;;-1.86;100.00
65276;BME280;51875;49.994;14.052;2023-04-06T00:55:11;98744.13;;;-1.77;100.00
65276;BME280;51875;49.994;14.052;2023-04-06T00:56:27;98740.16;;;-1.65;100.00
65276;BME280;51875;49.994;14.052;2023-04-06T00:57:43;98742.47;;;-1.76;100.00
65276;BME280;51875;49.994;14.052;2023-04-06T00:58:58;98746.06;;;-1.69;100.00
65276;BME280;51875;49.994;14.052;2023-04-06T01:00:15;98744.97;;;-1.78;100.00
65276;BME280;51875;49.994;14.052;2023-04-06T01:01:31;98742.53;;;-1.73;100.00
65276;BME280;51875;49.994;14.052;2023-04-06T01:02:47;98744.59;;;-1.60;100.00
65276;BME280;51875;49.994;14.052;2023-04-06T01:04:03;98740.44;;;-1.54;99.04
65276;BME280;51875;49.994;14.052;2023-04-06T01:05:19;98740.47;;;-1.53;97.84
65276;BME280;51875;49.994;14.052;2023-04-06T01:06:35;98738.22;;;-1.74;98.88
65276;BME280;51875;49.994;14.052;2023-04-06T01:07:50;98735.25;;;-1.90;100.00
65276;BME280;51875;49.994;14.052;2023-04-06T01:09:06;98741.56;;;-1.78;98.31
65276;BME280;51875;49.994;14.052;2023-04-06T01:10:25;98737.97;;;-1.85;99.90
65276;BME280;51875;49.994;14.052;2023-04-06T01:11:41;98742.34;;;-1.81;99.17
65276;BME280;51875;49.994;14.052;2023-04-06T01:12:57;98740.66;;;-1.80;99.38
65276;BME280;51875;49.994;14.052;2023-04-06T01:14:14;98737.97;;;-1.83;99.24
65276;BME280;51875;49.994;14.052;2023-04-06T01:15:31;98744.44;;;-1.98;100.00
65276;BME280;51875;49.994;14.052;2023-04-06T01:16:49;98739.44;;;-1.93;100.00
65276;BME280;51875;49.994;14.052;2023-04-06T01:18:04;98737.91;;;-1.87;100.00
65276;BME280;51875;49.994;14.052;2023-04-06T01:19:22;98737.91;;;-1.87;100.00
65276;BME280;51875;49.994;14.052;2023-04-06T01:20:38;98740.19;;;-1.97;100.00
65276;BME280;51875;49.994;14.052;2023-04-06T01:21:54;98738.88;;;-2.14;100.00
65276;BME280;51875;49.994;14.052;2023-04-06T01:23:10;98743.31;;;-2.09;100.00
65276;BME280;51875;49.994;14.052;2023-04-06T01:24:25;98742.47;;;-2.08;100.00
65276;BME280;51875;49.994;14.052;2023-04-06T01:25:41;98739.16;;;-2.35;100.00
65276;BME280;51875;49.994;14.052;2023-04-06T01:26:56;98739.03;;;-2.39;100.00
65276;BME280;51875;49.994;14.052;2023-04-06T01:28:12;98751.06;;;-2.37;100.00
65276;BME280;51875;49.994;14.052;2023-04-06T01:29:28;98741.84;;;-2.30;100.00
65276;BME280;51875;49.994;14.052;2023-04-06T01:30:43;98741.91;;;-2.29;100.00
65276;BME280;51875;49.994;14.052;2023-04-06T01:31:58;98740.97;;;-2.31;100.00
65276;BME280;51875;49.994;14.052;2023-04-06T01:33:14;98738.69;;;-2.21;100.00
65276;BME280;51875;49.994;14.052;2023-04-06T01:34:30;98735.75;;;-2.34;100.00
65276;BME280;51875;49.994;14.052;2023-04-06T01:35:46;98742.38;;;-2.42;100.00
65276;BME280;51875;49.994;14.052;2023-04-06T01:37:02;98740.75;;;-2.38;100.00
65276;BME280;51875;49.994;14.052;2023-04-06T01:38:17;98738.31;;;-2.34;100.00
65276;BME280;51875;49.994;14.052;2023-04-06T01:39:33;98737.81;;;-2.22;100.00
65276;BME280;51875;49.994;14.052;2023-04-06T01:40:48;98739.50;;;-2.22;100.00
65276;BME280;51875;49.994;14.052;2023-04-06T01:42:04;98739.56;;;-2.21;100.00
65276;BME280;51875;49.994;14.052;2023-04-06T01:43:19;98735.91;;;-2.29;100.00
65276;BME280;51875;49.994;14.052;2023-04-06T01:44:35;98738.66;;;-2.23;100.00
65276;BME280;51875;49.994;14.052;2023-04-06T01:45:52;98737.16;;;-2.15;100.00
65276;BME280;51875;49.994;14.052;2023-04-06T01:47:07;98733.75;;;-2.14;100.00
65276;BME280;51875;49.994;14.052;2023-04-06T01:48:23;98738.25;;;-2.06;100.00
65276;BME280;51875;49.994;14.052;2023-04-06T01:49:38;98735.81;;;-2.02;100.00
65276;BME280;51875;49.994;14.052;2023-04-06T01:50:55;98739.16;;;-2.04;100.00
65276;BME280;51875;49.994;14.052;2023-04-06T01:52:11;98736.53;;;-2.06;100.00
65276;BME280;51875;49.994;14.052;2023-04-06T01:53:26;98739.31;;;-1.98;100.00
65276;BME280;51875;49.994;14.052;2023-04-06T01:54:41;98728.25;;;-1.95;100.00
65276;BME280;51875;49.994;14.052;2023-04-06T01:55:57;98739.69;;;-2.16;100.00
65276;BME280;51875;49.994;14.052;2023-04-06T01:57:13;98732.44;;;-1.99;100.00
65276;BME280;51875;49.994;14.052;2023-04-06T01:58:28;98731.72;;;-1.95;100.00
65276;BME280;51875;49.994;14.052;2023-04-06T01:59:44;98730.19;;;-1.87;99.72
65276;BME280;51875;49.994;14.052;2023-04-06T02:00:59;98739.56;;;-1.89;97.78
65276;BME280;51875;49.994;14.052;2023-04-06T02:02:15;98729.16;;;-1.93;98.85
65276;BME280;51875;49.994;14.052;2023-04-06T02:03:30;98732.09;;;-2.11;98.13
65276;BME280;51875;49.994;14.052;2023-04-06T02:04:46;98736.16;;;-2.20;97.28
65276;BME280;51875;49.994;14.052;2023-04-06T02:06:02;98732.50;;;-2.28;97.64
65276;BME280;51875;49.994;14.052;2023-04-06T02:07:18;98736.47;;;-2.39;98.28
65276;BME280;51875;49.994;14.052;2023-04-06T02:08:34;98736.44;;;-2.41;99.64
65276;BME280;51875;49.994;14.052;2023-04-06T02:09:54;98736.38;;;-2.43;99.07
65276;BME280;51875;49.994;14.052;2023-04-06T02:11:10;98728.38;;;-2.53;98.87
65276;BME280;51875;49.994;14.052;2023-04-06T02:12:26;98734.03;;;-2.65;100.00
65276;BME280;51875;49.994;14.052;2023-04-06T02:13:41;98734.09;;;-2.62;99.53
65276;BME280;51875;49.994;14.052;2023-04-06T02:14:57;98739.03;;;-2.68;99.75
65276;BME280;51875;49.994;14.052;2023-04-06T02:16:13;98735.56;;;-2.71;99.80
65276;BME280;51875;49.994;14.052;2023-04-06T02:17:28;98732.03;;;-2.74;100.00
65276;BME280;51875;49.994;14.052;2023-04-06T02:18:44;98731.56;;;-2.61;99.86
65276;BME280;51875;49.994;14.052;2023-04-06T02:20:00;98729.31;;;-2.80;100.00
65276;BME280;51875;49.994;14.052;2023-04-06T02:21:15;98728.25;;;-2.87;100.00
65276;BME280;51875;49.994;14.052;2023-04-06T02:22:35;98735.03;;;-2.88;100.00
65276;BME280;51875;49.994;14.052;2023-04-06T02:23:51;98733.16;;;-2.93;100.00
65276;BME280;51875;49.994;14.052;2023-04-06T02:25:06;98733.38;;;-2.87;100.00
65276;BME280;51875;49.994;14.052;2023-04-06T02:26:23;98734.28;;;-2.85;100.00
65276;BME280;51875;49.994;14.052;2023-04-06T02:27:38;98731.22;;;-2.73;100.00
65276;BME280;51875;49.994;14.052;2023-04-06T02:28:54;98729.31;;;-2.80;100.00
65276;BME280;51875;49.994;14.052;2023-04-06T02:30:10;98730.81;;;-2.87;100.00
65276;BME280;51875;49.994;14.052;2023-04-06T02:31:25;98733.44;;;-2.86;100.00
65276;BME280;51875;49.994;14.052;2023-04-06T02:32:41;98727.72;;;-2.77;100.00
65276;BME280;51875;49.994;14.052;2023-04-06T02:33:57;98729.69;;;-2.66;100.00
65276;BME280;51875;49.994;14.052;2023-04-06T02:35:12;98728.16;;;-2.61;100.00
65276;BME280;51875;49.994;14.052;2023-04-06T02:36:28;98734.28;;;-2.56;100.00
65276;BME280;51875;49.994;14.052;2023-04-06T02:37:43;98732.84;;;-2.46;100.00
65276;BME280;51875;49.994;14.052;2023-04-06T02:38:59;98732.00;;;-2.45;100.00
65276;BME280;51875;49.994;14.052;2023-04-06T02:40:15;98732.91;;;-2.45;100.00
65276;BME280;51875;49.994;14.052;2023-04-06T02:41:30;98736.09;;;-2.52;99.77
65276;BME280;51875;49.994;14.052;2023-04-06T02:42:46;98735.84;;;-2.61;99.21
65276;BME280;51875;49.994;14.052;2023-04-06T02:44:02;98728.97;;;-2.62;99.71
65276;BME280;51875;49.994;14.052;2023-04-06T02:45:18;98732.25;;;-2.66;99.67
65276;BME280;51875;49.994;14.052;2023-04-06T02:46:33;98724.94;;;-2.83;99.20
65276;BME280;51875;49.994;14.052;2023-04-06T02:47:48;98736.91;;;-2.84;97.94
65276;BME280;51875;49.994;14.052;2023-04-06T02:49:05;98730.28;;;-2.77;97.78
65276;BME280;51875;49.994;14.052;2023-04-06T02:50:20;98726.66;;;-2.84;99.29
65276;BME280;51875;49.994;14.052;2023-04-06T02:51:36;98723.28;;;-2.81;100.00
65276;BME280;51875;49.994;14.052;2023-04-06T02:52:52;98726.50;;;-2.88;100.00
65276;BME280;51875;49.994;14.052;2023-04-06T02:54:08;98735.03;;;-2.88;100.00
65276;BME280;51875;49.994;14.052;2023-04-06T02:55:23;98731.44;;;-2.94;100.00
65276;BME280;51875;49.994;14.052;2023-04-06T02:56:39;98729.91;;;-2.89;100.00
65276;BME280;51875;49.994;14.052;2023-04-06T02:57:55;98734.81;;;-2.95;100.00
65276;BME280;51875;49.994;14.052;2023-04-06T02:59:10;98732.81;;;-3.06;100.00
65276;BME280;51875;49.994;14.052;2023-04-06T03:00:26;98726.28;;;-2.96;100.00
65276;BME280;51875;49.994;14.052;2023-04-06T03:01:42;98729.25;;;-2.82;100.00
65276;BME280;51875;49.994;14.052;2023-04-06T03:02:57;98730.56;;;-2.95;100.00
65276;BME280;51875;49.994;14.052;2023-04-06T03:04:13;98732.28;;;-3.23;100.00
65276;BME280;51875;49.994;14.052;2023-04-06T03:05:28;98728.88;;;-3.22;100.00
65276;BME280;51875;49.994;14.052;2023-04-06T03:06:44;98726.09;;;-3.30;100.00
65276;BME280;51875;49.994;14.052;2023-04-06T03:08:00;98729.03;;;-3.17;100.00
65276;BME280;51875;49.994;14.052;2023-04-06T03:09:15;98728.31;;;-3.13;100.00
65276;BME280;51875;49.994;14.052;2023-04-06T03:10:31;98732.41;;;-3.18;100.00
65276;BME280;51875;49.994;14.052;2023-04-06T03:11:46;98723.00;;;-3.19;100.00
65276;BME280;51875;49.994;14.052;2023-04-06T03:13:02;98733.34;;;-3.16;100.00
65276;BME280;51875;49.994;14.052;2023-04-06T03:14:17;98727.81;;;-3.29;100.00
65276;BME280;51875;49.994;14.052;2023-04-06T03:15:37;98730.22;;;-3.33;100.00
65276;BME280;51875;49.994;14.052;2023-04-06T03:16:52;98734.34;;;-3.38;100.00
65276;BME280;51875;49.994;14.052;2023-04-06T03:18:07;98734.06;;;-3.20;100.00
65276;BME280;51875;49.994;14.052;2023-04-06T03:19:23;98732.69;;;-3.09;100.00
65276;BME280;51875;49.994;14.052;2023-04-06T03:20:39;98736.19;;;-3.07;100.00
65276;BME280;51875;49.994;14.052;2023-04-06T03:21:55;98726.28;;;-2.96;100.00
65276;BME280;51875;49.994;14.052;2023-04-06T03:23:11;98734.94;;;-2.92;100.00
65276;BME280;51875;49.994;14.052;2023-04-06T03:24:26;98734.47;;;-2.79;100.00
65276;BME280;51875;49.994;14.052;2023-04-06T03:25:42;98733.00;;;-2.71;100.00
65276;BME280;51875;49.994;14.052;2023-04-06T03:26:58;98735.66;;;-2.67;100.00
65276;BME280;51875;49.994;14.052;2023-04-06T03:28:13;98732.38;;;-2.63;100.00
65276;BME280;51875;49.994;14.052;2023-04-06T03:29:29;98733.38;;;-2.58;100.00
65276;BME280;51875;49.994;14.052;2023-04-06T03:30:45;98740.31;;;-2.54;100.00
65276;BME280;51875;49.994;14.052;2023-04-06T03:32:01;98736.06;;;-2.53;100.00
65276;BME280;51875;49.994;14.052;2023-04-06T03:33:16;98736.84;;;-2.56;100.00
65276;BME280;51875;49.994;14.052;2023-04-06T03:34:32;98741.22;;;-2.52;100.00
65276;BME280;51875;49.994;14.052;2023-04-06T03:35:47;98740.53;;;-2.77;100.00
65276;BME280;51875;49.994;14.052;2023-04-06T03:37:03;98734.47;;;-2.79;100.00
65276;BME280;51875;49.994;14.052;2023-04-06T03:38:19;98741.91;;;-2.87;100.00
65276;BME280;51875;49.994;14.052;2023-04-06T03:39:35;98736.69;;;-2.90;100.00
65276;BME280;51875;49.994;14.052;2023-04-06T03:40:50;98741.88;;;-2.88;100.00
65276;BME280;51875;49.994;14.052;2023-04-06T03:42:06;98736.75;;;-2.88;100.00
65276;BME280;51875;49.994;14.052;2023-04-06T03:43:22;98738.50;;;-3.15;100.00
65276;BME280;51875;49.994;14.052;2023-04-06T03:44:37;98733.94;;;-3.23;100.00
65276;BME280;51875;49.994;14.052;2023-04-06T03:45:53;98735.16;;;-3.12;100.00
65276;BME280;51875;49.994;14.052;2023-04-06T03:47:08;98739.47;;;-3.11;100.00
65276;BME280;51875;49.994;14.052;2023-04-06T03:48:24;98746.22;;;-3.13;100.00
65276;BME280;51875;49.994;14.052;2023-04-06T03:49:39;98744.78;;;-3.05;100.00
65276;BME280;51875;49.994;14.052;2023-04-06T03:50:55;98743.59;;;-3.15;100.00
65276;BME280;51875;49.994;14.052;2023-04-06T03:52:10;98745.47;;;-3.10;100.00
65276;BME280;51875;49.994;14.052;2023-04-06T03:53:26;98742.84;;;-3.12;100.00
65276;BME280;51875;49.994;14.052;2023-04-06T03:54:42;98743.44;;;-3.21;100.00
65276;BME280;51875;49.994;14.052;2023-04-06T03:55:57;98746.91;;;-3.19;100.00
65276;BME280;51875;49.994;14.052;2023-04-06T03:57:13;98745.41;;;-3.12;100.00
65276;BME280;51875;49.994;14.052;2023-04-06T03:58:29;98751.94;;;-3.22;100.00
65276;BME280;51875;49.994;14.052;2023-04-06T03:59:44;98750.19;;;-2.95;100.00
65276;BME280;51875;49.994;14.052;2023-04-06T04:01:00;98753.97;;;-3.12;100.00
65276;BME280;51875;49.994;14.052;2023-04-06T04:02:15;98752.34;;;-3.08;100.00
65276;BME280;51875;49.994;14.052;2023-04-06T04:03:31;98751.84;;;-2.98;100.00
65276;BME280;51875;49.994;14.052;2023-04-06T04:04:47;98756.72;;;-3.05;100.00
65276;BME280;51875;49.994;14.052;2023-04-06T04:06:02;98757.22;;;-3.17;100.00
65276;BME280;51875;49.994;14.052;2023-04-06T04:07:18;98758.50;;;-3.03;100.00
65276;BME280;51875;49.994;14.052;2023-04-06T04:08:33;98759.06;;;-2.84;100.00
65276;BME280;51875;49.994;14.052;2023-04-06T04:09:50;98761.72;;;-2.81;100.00
65276;BME280;51875;49.994;14.052;2023-04-06T04:11:06;98763.63;;;-2.75;100.00
65276;BME280;51875;49.994;14.052;2023-04-06T04:12:21;98768.75;;;-2.75;100.00
65276;BME280;51875;49.994;14.052;2023-04-06T04:13:37;98768.84;;;-2.72;100.00
65276;BME280;51875;49.994;14.052;2023-04-06T04:14:52;98765.34;;;-2.74;100.00
65276;BME280;51875;49.994;14.052;2023-04-06T04:16:08;98772.41;;;-2.67;100.00
65276;BME280;51875;49.994;14.052;2023-04-06T04:17:24;98769.78;;;-2.70;100.00
65276;BME280;51875;49.994;14.052;2023-04-06T04:18:40;98768.06;;;-2.70;100.00
65276;BME280;51875;49.994;14.052;2023-04-06T04:19:55;98770.53;;;-2.73;100.00
65276;BME280;51875;49.994;14.052;2023-04-06T04:21:11;98768.78;;;-2.74;100.00
65276;BME280;51875;49.994;14.052;2023-04-06T04:22:26;98772.47;;;-2.65;100.00
65276;BME280;51875;49.994;14.052;2023-04-06T04:23:43;98775.84;;;-2.66;100.00
65276;BME280;51875;49.994;14.052;2023-04-06T04:24:58;98771.75;;;-2.61;100.00
65276;BME280;51875;49.994;14.052;2023-04-06T04:26:14;98774.28;;;-2.61;100.00
65276;BME280;51875;49.994;14.052;2023-04-06T04:27:30;98776.56;;;-2.71;100.00
65276;BME280;51875;49.994;14.052;2023-04-06T04:28:45;98780.78;;;-2.73;100.00
65276;BME280;51875;49.994;14.052;2023-04-06T04:30:01;98778.31;;;-2.70;100.00
65276;BME280;51875;49.994;14.052;2023-04-06T04:31:17;98770.63;;;-2.70;100.00
65276;BME280;51875;49.994;14.052;2023-04-06T04:32:33;98778.66;;;-2.86;100.00
65276;BME280;51875;49.994;14.052;2023-04-06T04:33:48;98768.78;;;-3.29;100.00
65276;BME280;51875;49.994;14.052;2023-04-06T04:35:05;98766.94;;;-3.07;100.00
65276;BME280;51875;49.994;14.052;2023-04-06T04:36:20;98777.22;;;-3.05;100.00
65276;BME280;51875;49.994;14.052;2023-04-06T04:37:36;98768.84;;;-3.00;100.00
65276;BME280;51875;49.994;14.052;2023-04-06T04:38:52;98772.31;;;-2.98;100.00
65276;BME280;51875;49.994;14.052;2023-04-06T04:40:08;98768.66;;;-3.06;100.00
65276;BME280;51875;49.994;14.052;2023-04-06T04:41:23;98773.50;;;-3.15;100.00
65276;BME280;51875;49.994;14.052;2023-04-06T04:42:39;98778.47;;;-3.20;100.00
65276;BME280;51875;49.994;14.052;2023-04-06T04:43:55;98773.28;;;-3.21;100.00
65276;BME280;51875;49.994;14.052;2023-04-06T04:45:11;98777.88;;;-3.38;100.00
65276;BME280;51875;49.994;14.052;2023-04-06T04:46:27;98775.06;;;-3.46;100.00
65276;BME280;51875;49.994;14.052;2023-04-06T04:47:42;98772.69;;;-3.40;100.00
65276;BME280;51875;49.994;14.052;2023-04-06T04:48:58;98780.59;;;-3.34;100.00
65276;BME280;51875;49.994;14.052;2023-04-06T04:50:13;98784.56;;;-3.42;100.00
65276;BME280;51875;49.994;14.052;2023-04-06T04:51:29;98779.94;;;-3.27;100.00
65276;BME280;51875;49.994;14.052;2023-04-06T04:52:46;98774.72;;;-3.04;100.00
65276;BME280;51875;49.994;14.052;2023-04-06T04:54:01;98777.34;;;-3.01;100.00
65276;BME280;51875;49.994;14.052;2023-04-06T04:55:17;98776.63;;;-2.96;100.00
65276;BME280;51875;49.994;14.052;2023-04-06T04:56:35;98777.75;;;-2.88;100.00
65276;BME280;51875;49.994;14.052;2023-04-06T04:57:51;98779.63;;;-2.82;100.00
65276;BME280;51875;49.994;14.052;2023-04-06T04:59:07;98777.91;;;-2.84;100.00
65276;BME280;51875;49.994;14.052;2023-04-06T05:00:22;98774.22;;;-2.92;100.00
65276;BME280;51875;49.994;14.052;2023-04-06T05:01:38;98775.47;;;-3.06;100.00
65276;BME280;51875;49.994;14.052;2023-04-06T05:02:53;98770.41;;;-3.05;100.00
65276;BME280;51875;49.994;14.052;2023-04-06T05:04:09;98783.78;;;-3.14;100.00
65276;BME280;51875;49.994;14.052;2023-04-06T05:05:25;98782.09;;;-3.13;100.00
65276;BME280;51875;49.994;14.052;2023-04-06T05:06:40;98782.31;;;-3.07;100.00
65276;BME280;51875;49.994;14.052;2023-04-06T05:07:56;98778.09;;;-3.05;100.00
65276;BME280;51875;49.994;14.052;2023-04-06T05:09:11;98781.59;;;-3.01;100.00
65276;BME280;51875;49.994;14.052;2023-04-06T05:10:27;98782.63;;;-2.96;100.00
65276;BME280;51875;49.994;14.052;2023-04-06T05:11:43;98786.44;;;-2.83;100.00
65276;BME280;51875;49.994;14.052;2023-04-06T05:12:58;98786.75;;;-2.74;100.00
65276;BME280;51875;49.994;14.052;2023-04-06T05:14:14;98782.59;;;-2.68;100.00
65276;BME280;51875;49.994;14.052;2023-04-06T05:15:30;98787.31;;;-2.82;100.00
65276;BME280;51875;49.994;14.052;2023-04-06T05:16:46;98793.47;;;-3.05;100.00
65276;BME280;51875;49.994;14.052;2023-04-06T05:18:02;98777.97;;;-3.08;100.00
65276;BME280;51875;49.994;14.052;2023-04-06T05:19:18;98779.09;;;-3.00;100.00
65276;BME280;51875;49.994;14.052;2023-04-06T05:20:34;98779.56;;;-2.84;100.00
65276;BME280;51875;49.994;14.052;2023-04-06T05:21:50;98786.91;;;-2.67;100.00
65276;BME280;51875;49.994;14.052;2023-04-06T05:23:05;98782.81;;;-2.62;100.00
65276;BME280;51875;49.994;14.052;2023-04-06T05:24:21;98786.28;;;-2.60;100.00
65276;BME280;51875;49.994;14.052;2023-04-06T05:25:37;98788.31;;;-2.50;100.00
65276;BME280;51875;49.994;14.052;2023-04-06T05:26:53;98784.03;;;-2.49;100.00
65276;BME280;51875;49.994;14.052;2023-04-06T05:28:08;98789.38;;;-2.43;100.00
65276;BME280;51875;49.994;14.052;2023-04-06T05:29:24;98784.19;;;-2.45;100.00
65276;BME280;51875;49.994;14.052;2023-04-06T05:30:40;98779.66;;;-2.53;100.00
65276;BME280;51875;49.994;14.052;2023-04-06T05:31:55;98783.97;;;-2.52;100.00
65276;BME280;51875;49.994;14.052;2023-04-06T05:33:11;98787.84;;;-2.65;100.00
65276;BME280;51875;49.994;14.052;2023-04-06T05:34:27;98791.22;;;-2.66;100.00
65276;BME280;51875;49.994;14.052;2023-04-06T05:35:42;98793.75;;;-2.68;100.00
65276;BME280;51875;49.994;14.052;2023-04-06T05:36:58;98787.19;;;-2.58;100.00
65276;BME280;51875;49.994;14.052;2023-04-06T05:38:14;98790.88;;;-2.50;100.00
65276;BME280;51875;49.994;14.052;2023-04-06T05:39:29;98792.56;;;-2.50;100.00
65276;BME280;51875;49.994;14.052;2023-04-06T05:40:45;98789.69;;;-2.61;100.00
65276;BME280;51875;49.994;14.052;2023-04-06T05:42:04;98787.19;;;-2.58;100.00
65276;BME280;51875;49.994;14.052;2023-04-06T05:43:20;98790.22;;;-2.43;100.00
65276;BME280;51875;49.994;14.052;2023-04-06T05:44:37;98784.25;;;-2.42;100.00
65276;BME280;51875;49.994;14.052;2023-04-06T05:45:52;98787.38;;;-2.23;100.00
65276;BME280;51875;49.994;14.052;2023-04-06T05:47:08;98787.53;;;-2.17;100.00
65276;BME280;51875;49.994;14.052;2023-04-06T05:48:24;98786.28;;;-2.01;100.00
65276;BME280;51875;49.994;14.052;2023-04-06T05:49:42;98780.34;;;-2.00;100.00
65276;BME280;51875;49.994;14.052;2023-04-06T05:50:57;98780.78;;;-1.82;100.00
65276;BME280;51875;49.994;14.052;2023-04-06T05:52:13;98778.41;;;-1.75;100.00
65276;BME280;51875;49.994;14.052;2023-04-06T05:53:28;98780.69;;;-1.86;100.00
65276;BME280;51875;49.994;14.052;2023-04-06T05:54:44;98782.00;;;-2.02;100.00
65276;BME280;51875;49.994;14.052;2023-04-06T05:56:03;98777.22;;;-1.88;100.00
65276;BME280;51875;49.994;14.052;2023-04-06T05:57:19;98780.75;;;-1.84;100.00
65276;BME280;51875;49.994;14.052;2023-04-06T05:58:34;98781.28;;;-1.64;100.00
65276;BME280;51875;49.994;14.052;2023-04-06T05:59:50;98775.31;;;-1.63;100.00
65276;BME280;51875;49.994;14.052;2023-04-06T06:01:05;98777.13;;;-1.60;100.00
65276;BME280;51875;49.994;14.052;2023-04-06T06:02:21;98780.81;;;-1.49;100.00
65276;BME280;51875;49.994;14.052;2023-04-06T06:03:37;98778.16;;;-1.52;100.00
65276;BME280;51875;49.994;14.052;2023-04-06T06:04:53;98778.72;;;-1.30;100.00
65276;BME280;51875;49.994;14.052;2023-04-06T06:06:08;98775.00;;;-1.42;100.00
65276;BME280;51875;49.994;14.052;2023-04-06T06:07:23;98785.31;;;-1.40;100.00
65276;BME280;51875;49.994;14.052;2023-04-06T06:08:39;98782.97;;;-1.32;100.00
65276;BME280;51875;49.994;14.052;2023-04-06T06:09:58;98774.63;;;-1.56;100.00
65276;BME280;51875;49.994;14.052;2023-04-06T06:11:13;98784.06;;;-1.56;100.00
65276;BME280;51875;49.994;14.052;2023-04-06T06:12:29;98775.84;;;-1.43;100.00
65276;BME280;51875;49.994;14.052;2023-04-06T06:13:45;98780.47;;;-1.29;100.00
65276;BME280;51875;49.994;14.052;2023-04-06T06:15:01;98783.41;;;-1.14;100.00
65276;BME280;51875;49.994;14.052;2023-04-06T06:16:18;98780.41;;;-0.95;100.00
65276;BME280;51875;49.994;14.052;2023-04-06T06:17:34;98779.63;;;-1.28;100.00
65276;BME280;51875;49.994;14.052;2023-04-06T06:18:49;98776.72;;;-1.07;100.00
65276;BME280;51875;49.994;14.052;2023-04-06T06:20:09;98767.22;;;-1.11;100.00
65276;BME280;51875;49.994;14.052;2023-04-06T06:21:24;98777.69;;;-1.02;100.00
65276;BME280;51875;49.994;14.052;2023-04-06T06:22:40;98767.44;;;-1.00;100.00
65276;BME280;51875;49.994;14.052;2023-04-06T06:23:55;98770.91;;;-0.61;100.00
65276;BME280;51875;49.994;14.052;2023-04-06T06:25:11;98772.34;;;-0.74;100.00
65276;BME280;51875;49.994;14.052;2023-04-06T06:26:26;98773.81;;;-0.84;100.00
65276;BME280;51875;49.994;14.052;2023-04-06T06:27:45;98771.44;;;-0.76;100.00
65276;BME280;51875;49.994;14.052;2023-04-06T06:29:00;98768.47;;;-0.93;100.00
65276;BME280;51875;49.994;14.052;2023-04-06T06:30:16;98773.19;;;-0.74;100.00
65276;BME280;51875;49.994;14.052;2023-04-06T06:31:32;98772.78;;;-0.54;100.00
65276;BME280;51875;49.994;14.052;2023-04-06T06:32:47;98767.97;;;-0.37;100.00